createdAt,value
2018-10-12T00:01:56.484Z,97.20
2018-10-12T00:04:25.144Z,95.80
2018-10-12T00:06:54.037Z,95.70
2018-10-12T00:09:22.632Z,96.70
2018-10-12T00:11:51.257Z,97.20
2018-10-12T00:14:19.826Z,98.20
2018-10-12T00:16:48.414Z,97.20
2018-10-12T00:19:16.990Z,96.20
2018-10-12T00:21:45.585Z,95.90
2018-10-12T00:24:14.167Z,96.90
2018-10-12T00:26:42.764Z,98.50
2018-10-12T00:29:11.328Z,98.20
2018-10-12T00:31:39.928Z,98.00
2018-10-12T00:34:08.526Z,97.80
2018-10-12T00:36:37.141Z,97.00
2018-10-12T00:39:07.086Z,97.30
2018-10-12T00:41:35.688Z,98.00
2018-10-12T00:44:04.322Z,97.60
2018-10-12T00:46:33.056Z,96.90
2018-10-12T00:49:01.621Z,97.20
2018-10-12T00:51:30.210Z,97.30
2018-10-12T00:53:58.777Z,97.40
2018-10-12T00:56:27.379Z,96.60
2018-10-12T00:58:55.990Z,97.00
2018-10-12T01:01:24.633Z,97.40
2018-10-12T01:03:53.217Z,97.40
2018-10-12T01:06:21.813Z,96.70
2018-10-12T01:08:50.669Z,97.00
2018-10-12T01:11:19.276Z,96.90
2018-10-12T01:13:47.881Z,97.10
2018-10-12T01:16:16.996Z,97.70
2018-10-12T01:18:45.618Z,97.60
2018-10-12T01:21:14.213Z,98.60
2018-10-12T01:23:42.805Z,97.50
2018-10-12T01:26:11.420Z,97.40
2018-10-12T01:28:40.061Z,98.40
2018-10-12T01:31:08.838Z,98.00
2018-10-12T01:33:37.500Z,97.40
2018-10-12T01:36:06.105Z,97.20
2018-10-12T01:38:34.709Z,97.40
2018-10-12T01:41:03.289Z,96.50
2018-10-12T01:43:31.929Z,97.50
2018-10-12T01:46:00.684Z,97.10
2018-10-12T01:48:29.298Z,96.50
2018-10-12T01:50:57.890Z,96.50
2018-10-12T01:53:26.504Z,97.30
2018-10-12T01:56:01.565Z,97.60
2018-10-12T01:58:30.876Z,97.20
2018-10-12T02:00:59.744Z,97.00
2018-10-12T02:03:28.756Z,97.90
2018-10-12T02:05:57.372Z,97.30
2018-10-12T02:08:26.090Z,97.10
2018-10-12T02:10:54.697Z,99.00
2018-10-12T02:13:23.301Z,97.30
2018-10-12T02:15:51.882Z,96.80
2018-10-12T02:18:20.485Z,97.60
2018-10-12T02:20:49.070Z,97.30
2018-10-12T02:23:17.661Z,97.50
2018-10-12T02:25:46.745Z,97.50
2018-10-12T02:28:15.341Z,97.60
2018-10-12T02:30:44.244Z,96.30
2018-10-12T02:33:12.844Z,96.90
2018-10-12T02:35:41.429Z,97.50
2018-10-12T02:38:10.035Z,97.10
2018-10-12T02:40:38.646Z,98.30
2018-10-12T02:43:07.529Z,97.80
2018-10-12T02:45:36.164Z,97.40
2018-10-12T02:48:04.788Z,97.20
2018-10-12T02:50:33.355Z,97.40
2018-10-12T02:53:01.985Z,97.50
2018-10-12T02:55:30.576Z,97.60
2018-10-12T02:57:59.166Z,98.00
2018-10-12T03:00:27.752Z,98.00
2018-10-12T03:02:56.336Z,98.20
2018-10-12T03:05:24.923Z,98.20
2018-10-12T03:07:53.556Z,96.90
2018-10-12T03:10:22.139Z,97.20
2018-10-12T03:12:50.722Z,96.80
2018-10-12T03:15:19.322Z,98.30
2018-10-12T03:17:48.179Z,98.80
2018-10-12T03:20:16.777Z,97.80
2018-10-12T03:22:45.345Z,97.10
2018-10-12T03:25:13.997Z,96.90
2018-10-12T03:27:53.750Z,97.20
2018-10-12T03:30:22.445Z,99.20
2018-10-12T03:32:51.039Z,98.00
2018-10-12T03:35:19.688Z,97.00
2018-10-12T03:37:48.273Z,97.50
2018-10-12T03:40:16.925Z,97.90
2018-10-12T03:42:46.307Z,98.40
2018-10-12T03:45:14.923Z,98.80
2018-10-12T03:47:43.537Z,98.10
2018-10-12T03:50:15.036Z,98.70
2018-10-12T03:52:43.736Z,98.00
2018-10-12T03:55:12.361Z,98.00
2018-10-12T03:57:40.947Z,98.00
2018-10-12T04:00:09.562Z,97.60
2018-10-12T04:02:38.193Z,97.50
2018-10-12T04:05:06.854Z,98.00
2018-10-12T04:07:35.440Z,98.00
2018-10-12T04:10:04.121Z,99.80
2018-10-12T04:12:32.712Z,98.30
2018-10-12T04:15:01.333Z,98.90
2018-10-12T04:17:29.909Z,99.20
2018-10-12T04:19:58.505Z,98.70
2018-10-12T04:22:27.108Z,98.10
2018-10-12T04:24:55.713Z,98.30
2018-10-12T04:27:24.408Z,99.90
2018-10-12T04:29:53.003Z,99.90
2018-10-12T04:32:21.578Z,99.50
2018-10-12T04:34:50.177Z,99.70
2018-10-12T04:37:18.757Z,98.70
2018-10-12T04:39:56.816Z,98.60
2018-10-12T04:42:25.436Z,99.50
2018-10-12T04:44:54.348Z,99.80
2018-10-12T04:47:26.790Z,99.70
2018-10-12T04:49:55.951Z,98.80
2018-10-12T04:52:26.083Z,99.10
2018-10-12T04:54:54.707Z,98.20
2018-10-12T04:57:23.373Z,98.90
2018-10-12T04:59:51.988Z,99.50
2018-10-12T05:02:20.598Z,99.20
2018-10-12T05:04:49.209Z,97.90
2018-10-12T05:07:17.854Z,98.90
2018-10-12T05:09:46.453Z,99.90
2018-10-12T05:12:15.111Z,99.30
2018-10-12T05:14:43.705Z,99.60
2018-10-12T05:17:12.383Z,99.10
2018-10-12T05:19:41.467Z,99.90
2018-10-12T05:22:12.637Z,99.20
2018-10-12T05:27:44.020Z,98.80
2018-10-12T05:30:12.612Z,99.40
2018-10-12T05:32:41.161Z,98.20
2018-10-12T05:35:09.699Z,99.30
2018-10-12T05:37:38.293Z,99.60
2018-10-12T05:40:07.086Z,98.20
2018-10-12T05:42:36.012Z,98.90
2018-10-12T05:45:04.664Z,99.00
2018-10-12T05:47:33.250Z,98.60
2018-10-12T05:50:04.456Z,99.70
2018-10-12T05:52:33.672Z,99.20
2018-10-12T05:55:02.829Z,98.70
2018-10-12T05:57:32.925Z,98.90
2018-10-12T06:00:01.517Z,99.90
2018-10-12T06:02:30.116Z,99.90
2018-10-12T06:04:58.675Z,99.90
2018-10-12T06:07:27.280Z,99.60
2018-10-12T06:09:56.047Z,99.20
2018-10-12T06:12:24.447Z,99.90
2018-10-12T06:14:53.023Z,99.90
2018-10-12T06:17:21.595Z,99.90
2018-10-12T06:19:50.132Z,99.80
2018-10-12T06:22:18.748Z,99.90
2018-10-12T06:24:47.304Z,99.90
2018-10-12T06:27:15.877Z,99.90
2018-10-12T06:29:44.407Z,99.90
2018-10-12T06:32:13.023Z,99.90
2018-10-12T06:34:41.565Z,99.90
2018-10-12T06:37:10.133Z,99.90
2018-10-12T06:39:38.689Z,99.90
2018-10-12T06:42:07.287Z,99.90
2018-10-12T06:44:35.868Z,99.90
2018-10-12T06:47:04.469Z,99.90
2018-10-12T06:49:33.028Z,99.90
2018-10-12T06:52:01.592Z,99.90
2018-10-12T06:54:30.750Z,99.90
2018-10-12T06:56:59.296Z,99.90
2018-10-12T06:59:27.895Z,99.90
2018-10-12T07:01:56.503Z,99.90
2018-10-12T07:04:25.188Z,99.90
2018-10-12T07:06:53.836Z,99.90
2018-10-12T07:09:22.503Z,99.90
2018-10-12T07:11:51.048Z,98.60
2018-10-12T07:14:19.609Z,97.50
2018-10-12T07:16:48.160Z,95.70
2018-10-12T07:19:16.724Z,94.40
2018-10-12T07:21:45.272Z,93.10
2018-10-12T07:24:13.853Z,91.40
2018-10-12T07:26:43.136Z,90.40
2018-10-12T07:29:11.716Z,89.70
2018-10-12T07:31:40.299Z,88.60
2018-10-12T07:34:08.841Z,89.40
2018-10-12T07:36:37.371Z,87.30
2018-10-12T07:39:07.852Z,83.80
2018-10-12T07:41:36.420Z,84.50
2018-10-12T07:44:05.068Z,85.30
2018-10-12T07:46:33.811Z,84.00
2018-10-12T07:49:02.373Z,85.90
2018-10-12T07:51:30.915Z,88.00
2018-10-12T07:53:59.505Z,90.40
2018-10-12T07:56:28.072Z,90.60
2018-10-12T07:58:56.632Z,90.10
2018-10-12T08:01:25.169Z,89.20
2018-10-12T08:03:53.788Z,88.40
2018-10-12T08:06:22.560Z,85.70
2018-10-12T08:08:51.295Z,84.50
2018-10-12T08:11:19.875Z,82.50
2018-10-12T08:13:48.504Z,82.60
2018-10-12T08:16:17.008Z,79.70
2018-10-12T08:18:45.711Z,77.40
2018-10-12T08:21:14.264Z,75.80
2018-10-12T08:23:42.862Z,74.50
2018-10-12T08:26:11.424Z,75.60
2018-10-12T08:28:40.005Z,72.90
2018-10-12T08:31:08.543Z,69.20
2018-10-12T08:33:37.216Z,70.00
2018-10-12T08:36:05.940Z,70.40
2018-10-12T08:38:34.604Z,69.00
2018-10-12T08:41:03.339Z,64.20
2018-10-12T08:43:31.973Z,68.50
2018-10-12T08:46:00.515Z,63.40
2018-10-12T08:48:29.072Z,63.20
2018-10-12T08:50:57.629Z,61.00
2018-10-12T08:53:26.207Z,61.10
2018-10-12T08:55:54.776Z,64.80
2018-10-12T08:58:23.351Z,61.30
2018-10-12T09:00:52.389Z,61.20
2018-10-12T09:03:20.989Z,60.60
2018-10-12T09:05:49.531Z,58.40
2018-10-12T09:08:18.076Z,59.30
2018-10-12T09:10:46.632Z,60.20
2018-10-12T09:13:15.160Z,59.10
2018-10-12T09:15:43.748Z,60.90
2018-10-12T09:18:12.278Z,55.30
2018-10-12T09:20:40.914Z,55.30
2018-10-12T09:23:09.416Z,55.20
2018-10-12T09:25:37.972Z,56.20
2018-10-12T09:28:06.536Z,57.40
2018-10-12T09:30:35.096Z,55.20
2018-10-12T09:33:03.753Z,52.70
2018-10-12T09:35:32.313Z,53.90
2018-10-12T09:38:01.346Z,56.90
2018-10-12T09:40:29.917Z,53.40
2018-10-12T09:42:58.473Z,51.00
2018-10-12T09:45:27.063Z,53.90
2018-10-12T09:47:55.635Z,54.40
2018-10-12T09:50:24.288Z,52.30
2018-10-12T09:52:53.180Z,51.70
2018-10-12T09:55:22.015Z,50.60
2018-10-12T09:57:50.552Z,49.00
2018-10-12T10:00:24.356Z,50.10
2018-10-12T10:02:58.943Z,47.70
2018-10-12T10:05:27.580Z,52.00
2018-10-12T10:07:56.272Z,46.50
2018-10-12T10:10:24.696Z,48.00
2018-10-12T10:12:53.312Z,43.40
2018-10-12T10:15:21.902Z,42.10
2018-10-12T10:17:50.448Z,42.50
2018-10-12T10:20:19.023Z,47.00
2018-10-12T10:22:47.600Z,42.50
2018-10-12T10:25:16.997Z,43.00
2018-10-12T10:27:45.544Z,44.10
2018-10-12T10:30:14.120Z,40.60
2018-10-12T10:32:42.655Z,40.10
2018-10-12T10:35:11.271Z,43.20
2018-10-12T10:37:39.828Z,41.70
2018-10-12T10:40:08.942Z,40.50
2018-10-12T10:42:37.493Z,42.20
2018-10-12T10:45:06.128Z,38.60
2018-10-12T10:47:34.711Z,37.50
2018-10-12T10:50:03.349Z,38.20
2018-10-12T10:52:31.922Z,40.90
2018-10-12T10:55:00.877Z,36.90
2018-10-12T10:57:29.684Z,37.10
2018-10-12T10:59:58.261Z,37.40
2018-10-12T11:02:26.795Z,39.80
2018-10-12T11:04:55.373Z,42.50
2018-10-12T11:07:23.927Z,39.20
2018-10-12T11:09:52.494Z,41.00
2018-10-12T11:12:21.095Z,40.00
2018-10-12T11:14:49.647Z,44.60
2018-10-12T11:17:18.297Z,44.00
2018-10-12T11:19:46.867Z,41.90
2018-10-12T11:22:15.405Z,43.20
2018-10-12T11:24:44.040Z,45.50
2018-10-12T11:27:12.536Z,45.60
2018-10-12T11:29:41.147Z,46.70
2018-10-12T11:32:09.664Z,47.20
2018-10-12T11:34:38.247Z,48.10
2018-10-12T11:37:06.792Z,46.60
2018-10-12T11:39:35.901Z,47.80
2018-10-12T11:42:04.469Z,47.70
2018-10-12T11:44:33.060Z,49.40
2018-10-12T11:47:01.595Z,49.10
2018-10-12T11:49:30.187Z,48.20
2018-10-12T11:51:58.738Z,48.60
2018-10-12T11:54:27.325Z,50.20
2018-10-12T11:56:55.865Z,50.30
2018-10-12T11:59:25.040Z,50.30
2018-10-12T12:01:53.619Z,50.30
2018-10-12T12:04:22.198Z,49.60
2018-10-12T12:06:50.971Z,50.10
2018-10-12T12:09:19.516Z,51.20
2018-10-12T12:11:48.074Z,52.40
2018-10-12T12:14:16.611Z,51.80
2018-10-12T12:16:45.232Z,51.50
2018-10-12T12:19:13.824Z,49.20
2018-10-12T12:21:42.396Z,51.00
2018-10-12T12:24:10.936Z,50.60
2018-10-12T12:26:39.516Z,52.00
2018-10-12T12:29:08.061Z,52.90
2018-10-12T12:31:36.739Z,52.20
2018-10-12T12:34:05.362Z,53.00
2018-10-12T12:36:33.922Z,52.70
2018-10-12T12:39:02.545Z,52.60
2018-10-12T12:41:31.168Z,54.10
2018-10-12T12:43:59.796Z,54.10
2018-10-12T12:46:28.410Z,54.30
2018-10-12T12:48:57.369Z,54.40
2018-10-12T12:51:25.546Z,53.80
2018-10-12T12:53:54.169Z,53.80
2018-10-12T12:56:22.689Z,54.50
2018-10-12T12:58:51.236Z,54.20
2018-10-12T13:01:19.811Z,53.30
2018-10-12T13:03:48.349Z,54.20
2018-10-12T13:06:16.937Z,55.10
2018-10-12T13:08:45.476Z,54.40
2018-10-12T13:11:14.088Z,54.90
2018-10-12T13:13:42.688Z,56.10
2018-10-12T13:16:11.227Z,56.30
2018-10-12T13:18:39.781Z,55.60
2018-10-12T13:21:08.365Z,54.90
2018-10-12T13:23:37.031Z,56.20
2018-10-12T13:26:05.985Z,56.20
2018-10-12T13:28:34.490Z,56.30
2018-10-12T13:31:03.101Z,56.30
2018-10-12T13:33:31.678Z,56.50
2018-10-12T13:36:02.329Z,56.30
2018-10-12T13:38:32.197Z,56.40
2018-10-12T13:41:02.471Z,55.20
2018-10-12T13:43:31.061Z,55.60
2018-10-12T13:46:01.284Z,55.40
2018-10-12T13:48:29.965Z,56.40
2018-10-12T13:50:58.674Z,56.90
2018-10-12T13:53:27.243Z,56.60
2018-10-12T13:55:55.790Z,56.90
2018-10-12T13:58:25.231Z,56.90
2018-10-12T14:00:53.771Z,55.00
2018-10-12T14:03:22.344Z,54.80
2018-10-12T14:05:50.920Z,55.10
2018-10-12T14:08:19.482Z,55.50
2018-10-12T14:10:48.040Z,56.00
2018-10-12T14:13:16.656Z,56.10
2018-10-12T14:15:45.217Z,57.20
2018-10-12T14:18:13.892Z,58.10
2018-10-12T14:20:42.384Z,58.00
2018-10-12T14:23:10.951Z,57.70
2018-10-12T14:25:39.637Z,57.70
2018-10-12T14:28:08.204Z,57.80
2018-10-12T14:30:36.748Z,57.90
2018-10-12T14:33:05.872Z,58.20
2018-10-12T14:35:34.974Z,58.40
2018-10-12T14:38:03.844Z,58.50
2018-10-12T14:40:32.300Z,57.70
2018-10-12T14:43:01.676Z,58.00
2018-10-12T14:45:38.520Z,58.50
2018-10-12T14:48:07.119Z,59.10
2018-10-12T14:50:35.987Z,58.90
2018-10-12T14:53:04.749Z,59.00
2018-10-12T14:55:33.493Z,59.00
2018-10-12T14:58:02.068Z,60.00
2018-10-12T15:00:30.643Z,61.60
2018-10-12T15:02:59.250Z,61.60
2018-10-12T15:05:27.872Z,64.20
2018-10-12T15:07:56.413Z,64.00
2018-10-12T15:10:24.967Z,64.30
2018-10-12T15:12:53.524Z,64.90
2018-10-12T15:15:24.340Z,65.60
2018-10-12T15:17:53.859Z,65.60
2018-10-12T15:20:22.684Z,66.90
2018-10-12T15:22:51.453Z,67.90
2018-10-12T15:25:20.031Z,67.60
2018-10-12T15:27:48.669Z,67.60
2018-10-12T15:30:17.793Z,68.50
2018-10-12T15:32:46.398Z,67.20
2018-10-12T15:35:14.972Z,67.80
2018-10-12T15:37:44.308Z,69.00
2018-10-12T15:40:12.837Z,69.50
2018-10-12T15:42:41.738Z,70.20
2018-10-12T15:45:10.365Z,70.70
2018-10-12T15:47:38.971Z,72.40
2018-10-12T15:50:07.599Z,73.80
2018-10-12T15:52:36.655Z,74.30
2018-10-12T15:55:05.256Z,75.50
2018-10-12T15:57:33.863Z,75.50
2018-10-12T16:00:02.592Z,76.20
2018-10-12T16:02:31.144Z,77.20
2018-10-12T16:04:59.731Z,77.50
2018-10-12T16:07:28.276Z,78.20
2018-10-12T16:09:56.964Z,78.60
2018-10-12T16:12:25.616Z,79.60
2018-10-12T16:14:54.211Z,79.20
2018-10-12T16:17:22.752Z,79.10
2018-10-12T16:19:51.337Z,80.00
2018-10-12T16:22:19.921Z,80.00
2018-10-12T16:24:59.606Z,80.10
2018-10-12T16:27:28.180Z,80.40
2018-10-12T16:29:56.860Z,80.60
2018-10-12T16:32:25.767Z,81.10
2018-10-12T16:34:54.335Z,82.80
2018-10-12T16:37:22.877Z,82.00
2018-10-12T16:39:51.453Z,82.50
2018-10-12T16:42:20.019Z,83.20
2018-10-12T16:44:48.644Z,82.60
2018-10-12T16:47:17.204Z,83.40
2018-10-12T16:49:45.788Z,84.10
2018-10-12T16:52:14.360Z,85.00
2018-10-12T16:54:42.972Z,84.50
2018-10-12T16:57:11.551Z,84.60
2018-10-12T16:59:40.111Z,85.50
2018-10-12T17:02:08.659Z,86.40
2018-10-12T17:04:37.294Z,87.10
2018-10-12T17:07:06.086Z,86.00
2018-10-12T17:09:34.732Z,85.60
2018-10-12T17:12:03.283Z,87.40
2018-10-12T17:14:31.916Z,86.80
2018-10-12T17:17:00.451Z,87.40
2018-10-12T17:19:29.048Z,87.40
2018-10-12T17:21:57.597Z,87.60
2018-10-12T17:24:26.188Z,88.10
2018-10-12T17:26:54.724Z,89.60
2018-10-12T17:29:23.319Z,89.30
2018-10-12T17:31:51.881Z,88.80
2018-10-12T17:34:20.432Z,90.00
2018-10-12T17:36:49.027Z,90.10
2018-10-12T17:39:17.609Z,90.20
2018-10-12T17:41:46.173Z,90.00
2018-10-12T17:44:16.913Z,90.10
2018-10-12T17:46:47.598Z,89.70
2018-10-12T17:49:19.764Z,89.50
2018-10-12T17:51:48.353Z,90.20
2018-10-12T17:54:17.389Z,90.00
2018-10-12T17:56:45.944Z,90.10
2018-10-12T17:59:15.067Z,90.80
2018-10-12T18:01:44.850Z,90.70
2018-10-12T18:04:13.453Z,91.10
2018-10-12T18:06:42.015Z,91.20
2018-10-12T18:09:10.734Z,90.90
2018-10-12T18:11:39.308Z,90.60
2018-10-12T18:14:09.697Z,89.90
2018-10-12T18:16:41.210Z,90.60
2018-10-12T18:19:10.683Z,91.30
2018-10-12T18:21:41.221Z,90.10
2018-10-12T18:24:10.772Z,90.60
2018-10-12T18:26:39.501Z,90.60
2018-10-12T18:29:08.281Z,91.10
2018-10-12T18:31:37.946Z,91.40
2018-10-12T18:34:06.530Z,91.50
2018-10-12T18:36:36.160Z,91.70
2018-10-12T18:41:48.578Z,91.80
2018-10-12T18:44:17.216Z,91.20
2018-10-12T18:46:45.783Z,91.80
2018-10-12T18:49:14.331Z,91.60
2018-10-12T18:51:42.957Z,91.70
2018-10-12T18:54:11.578Z,92.20
2018-10-12T18:56:40.113Z,91.20
2018-10-12T18:59:09.104Z,92.60
2018-10-12T19:01:37.676Z,92.20
2018-10-12T19:04:06.271Z,92.10
2018-10-12T19:06:34.885Z,91.40
2018-10-12T19:09:03.857Z,92.30
2018-10-12T19:11:32.447Z,91.80
2018-10-12T19:14:00.992Z,92.70
2018-10-12T19:16:29.590Z,92.80
2018-10-12T19:18:58.135Z,92.50
2018-10-12T19:21:26.725Z,92.80
2018-10-12T19:23:55.441Z,91.70
2018-10-12T19:26:23.896Z,92.30
2018-10-12T19:28:52.465Z,93.70
2018-10-12T19:31:21.046Z,93.30
2018-10-12T19:33:49.605Z,93.80
2018-10-12T19:36:18.171Z,92.50
2018-10-12T19:38:46.733Z,93.20
2018-10-12T19:41:15.275Z,93.00
2018-10-12T19:43:43.860Z,92.60
2018-10-12T19:46:12.529Z,92.60
2018-10-12T19:48:41.068Z,91.70
2018-10-12T19:51:09.865Z,93.50
2018-10-12T19:53:38.447Z,94.20
2018-10-12T19:56:08.164Z,94.00
2018-10-12T19:58:36.731Z,93.80
2018-10-12T20:01:05.281Z,93.80
2018-10-12T20:03:33.885Z,94.90
2018-10-12T20:06:02.415Z,94.10
2018-10-12T20:08:30.977Z,93.50
2018-10-12T20:10:59.536Z,93.60
2018-10-12T20:13:28.120Z,94.60
2018-10-12T20:15:56.937Z,94.10
2018-10-12T20:18:25.521Z,94.20
2018-10-12T20:20:54.287Z,92.90
2018-10-12T20:23:22.852Z,93.70
2018-10-12T20:25:51.409Z,93.80
2018-10-12T20:28:19.973Z,94.70
2018-10-12T20:30:48.503Z,95.90
2018-10-12T20:33:17.448Z,95.10
2018-10-12T20:35:46.032Z,95.40
2018-10-12T20:38:14.621Z,94.80
2018-10-12T20:40:43.163Z,94.90
2018-10-12T20:43:11.776Z,95.00
2018-10-12T20:45:40.328Z,95.20
2018-10-12T20:48:08.920Z,95.60
2018-10-12T20:50:37.524Z,94.70
2018-10-12T20:53:06.140Z,95.00
2018-10-12T20:55:35.331Z,95.30
2018-10-12T20:58:03.980Z,94.90
2018-10-12T21:00:32.570Z,94.80
2018-10-12T21:03:01.141Z,95.10
2018-10-12T21:05:29.723Z,94.70
2018-10-12T21:07:58.267Z,95.70
2018-10-12T21:10:26.817Z,95.40
2018-10-12T21:12:55.595Z,96.10
2018-10-12T21:15:24.247Z,95.30
2018-10-12T21:17:52.814Z,95.70
2018-10-12T21:20:21.362Z,95.70
2018-10-12T21:22:49.897Z,95.80
2018-10-12T21:25:18.456Z,95.30
2018-10-12T21:27:47.001Z,95.10
2018-10-12T21:30:15.582Z,94.40
2018-10-12T21:32:44.124Z,95.00
2018-10-12T21:35:12.686Z,95.40
2018-10-12T21:37:41.229Z,95.90
2018-10-12T21:40:09.822Z,94.70
2018-10-12T21:42:38.411Z,94.40
2018-10-12T21:45:07.029Z,94.80
2018-10-12T21:47:36.160Z,95.10
2018-10-12T21:50:04.783Z,94.90
2018-10-12T21:52:33.328Z,95.00
2018-10-12T21:55:01.897Z,96.10
2018-10-12T21:57:30.443Z,95.10
2018-10-12T22:00:00.075Z,95.20
2018-10-12T22:02:28.995Z,96.00
2018-10-12T22:04:57.769Z,94.90
2018-10-12T22:07:26.403Z,95.30
2018-10-12T22:09:54.925Z,94.40
2018-10-12T22:12:23.476Z,94.60
2018-10-12T22:14:52.051Z,94.80
2018-10-12T22:17:20.608Z,96.10
2018-10-12T22:19:49.266Z,96.10
2018-10-12T22:22:17.888Z,95.40
2018-10-12T22:24:46.463Z,95.50
2018-10-12T22:27:15.020Z,96.10
2018-10-12T22:29:43.577Z,95.50
2018-10-12T22:32:12.116Z,95.30
2018-10-12T22:34:40.666Z,95.30
2018-10-12T22:37:09.224Z,95.80
2018-10-12T22:39:37.859Z,95.40
2018-10-12T22:42:06.445Z,95.60
2018-10-12T22:44:35.255Z,95.00
2018-10-12T22:47:03.920Z,95.10
2018-10-12T22:49:32.519Z,95.50
2018-10-12T22:52:01.052Z,95.20
2018-10-12T22:54:29.599Z,95.70
2018-10-12T22:56:58.356Z,95.30
2018-10-12T22:59:27.199Z,95.50
2018-10-12T23:01:55.785Z,95.20
2018-10-12T23:04:24.411Z,95.50
2018-10-12T23:06:52.977Z,95.50
2018-10-12T23:09:21.524Z,95.20
2018-10-12T23:11:50.084Z,95.60
2018-10-12T23:14:18.620Z,95.40
2018-10-12T23:16:47.188Z,95.20
2018-10-12T23:19:15.725Z,94.50
2018-10-12T23:21:44.280Z,96.50
2018-10-12T23:24:12.821Z,95.50
2018-10-12T23:26:41.397Z,96.20
2018-10-12T23:29:09.941Z,95.60
2018-10-12T23:31:38.513Z,95.40
2018-10-12T23:34:08.564Z,95.50
2018-10-12T23:36:37.168Z,95.30
2018-10-12T23:39:08.075Z,97.30
2018-10-12T23:41:37.148Z,95.30
2018-10-12T23:44:06.005Z,95.80
2018-10-12T23:46:34.691Z,95.80
2018-10-12T23:49:03.244Z,95.10
2018-10-12T23:51:31.803Z,95.50
2018-10-12T23:54:00.499Z,96.20
2018-10-12T23:56:29.057Z,95.50
2018-10-12T23:58:57.583Z,97.50
